createdAt,value
2022-08-05T00:00:46.261Z,0.04
2022-08-05T00:03:41.192Z,0.03
2022-08-05T00:06:29.444Z,0.03
2022-08-05T00:08:50.742Z,0.04
2022-08-05T00:11:03.394Z,0.03
2022-08-05T00:14:11.936Z,0.03
2022-08-05T00:16:55.154Z,0.03
2022-08-05T00:19:33.040Z,0.04
2022-08-05T00:21:48.048Z,0.03
2022-08-05T00:23:53.779Z,0.03
2022-08-05T00:26:50.660Z,0.03
2022-08-05T00:29:37.925Z,0.03
2022-08-05T00:32:11.244Z,0.03
2022-08-05T00:34:43.214Z,0.03
2022-08-05T00:37:12.243Z,0.03
2022-08-05T00:39:57.648Z,0.03
2022-08-05T00:42:32.015Z,0.03
2022-08-05T00:44:42.149Z,0.03
2022-08-05T00:46:44.655Z,0.03
2022-08-05T00:49:44.566Z,0.03
2022-08-05T00:52:16.473Z,0.03
2022-08-05T00:54:40.256Z,0.03
2022-08-05T00:56:51.689Z,0.03
2022-08-05T00:59:49.252Z,0.03
2022-08-05T01:02:34.182Z,0.03
2022-08-05T01:05:05.058Z,0.03
2022-08-05T01:07:20.226Z,0.03
2022-08-05T01:10:26.392Z,0.03
2022-08-05T01:13:19.300Z,0.03
2022-08-05T01:15:54.752Z,0.04
2022-08-05T01:18:16.755Z,0.03
2022-08-05T01:20:23.844Z,0.03
2022-08-05T01:23:22.869Z,0.03
2022-08-05T01:26:05.002Z,0.03
2022-08-05T01:28:33.310Z,0.03
2022-08-05T01:30:50.617Z,0.03
2022-08-05T01:33:53.462Z,0.03
2022-08-05T01:36:42.112Z,0.03
2022-08-05T01:39:15.438Z,0.04
2022-08-05T01:41:35.466Z,0.04
2022-08-05T01:43:40.928Z,0.04
2022-08-05T01:46:41.766Z,0.03
2022-08-05T01:49:23.459Z,0.03
2022-08-05T01:51:44.140Z,0.03
2022-08-05T01:53:58.178Z,0.03
2022-08-05T01:58:08.316Z,0.04
2022-08-05T01:59:46.948Z,0.03
2022-08-05T02:02:18.326Z,0.04
2022-08-05T02:04:36.424Z,0.03
2022-08-05T02:06:39.762Z,0.04
2022-08-05T02:09:33.595Z,0.04
2022-08-05T02:12:12.908Z,0.03
2022-08-05T02:14:37.508Z,0.04
2022-08-05T02:16:52.390Z,0.04
2022-08-05T02:19:47.798Z,0.04
2022-08-05T02:22:33.200Z,0.04
2022-08-05T02:25:04.088Z,0.04
2022-08-05T02:27:20.195Z,0.04
2022-08-05T02:30:27.102Z,0.04
2022-08-05T02:33:24.268Z,0.04
2022-08-05T02:35:59.061Z,0.04
2022-08-05T02:38:19.244Z,0.04
2022-08-05T02:40:27.508Z,0.04
2022-08-05T02:43:25.382Z,0.04
2022-08-05T02:46:09.211Z,0.05
2022-08-05T02:48:38.275Z,0.05
2022-08-05T02:50:52.596Z,0.06
2022-08-05T02:54:03.204Z,0.07
2022-08-05T02:56:47.628Z,0.08
2022-08-05T02:59:27.051Z,0.09
2022-08-05T03:01:43.799Z,0.12
2022-08-05T03:04:02.016Z,0.14
2022-08-05T03:06:53.292Z,0.2
2022-08-05T03:09:36.630Z,0.27
2022-08-05T03:11:58.118Z,0.39
2022-08-05T03:14:08.371Z,0.48
2022-08-05T03:17:11.147Z,0.76
2022-08-05T03:19:59.597Z,1.17
2022-08-05T03:22:33.236Z,1.7
2022-08-05T03:24:52.311Z,2.36
2022-08-05T03:26:56.262Z,3.25
2022-08-05T03:30:07.138Z,5.18
2022-08-05T03:32:31.412Z,7.63
2022-08-05T03:34:56.498Z,11.45
2022-08-05T03:37:07.231Z,15.49
2022-08-05T03:40:08.496Z,23.24
2022-08-05T03:42:54.919Z,34.81
2022-08-05T03:45:26.814Z,51.92
2022-08-05T03:47:43.893Z,70.52
2022-08-05T03:49:51.734Z,88.8
2022-08-05T03:53:12.409Z,121.36
2022-08-05T03:56:01.288Z,152.92
2022-08-05T03:57:42.177Z,187.6
2022-08-05T03:59:54.645Z,219.4
2022-08-05T04:02:52.393Z,271.6
2022-08-05T04:05:34.547Z,322.9
2022-08-05T04:08:03.693Z,379
2022-08-05T04:10:19.012Z,427.5
2022-08-05T04:13:24.903Z,499.3
2022-08-05T04:16:15.929Z,573.2
2022-08-05T04:18:54.090Z,644.3
2022-08-05T04:21:14.208Z,727.3
2022-08-05T04:23:21.207Z,809.9
2022-08-05T04:26:18.965Z,1002.8
2022-08-05T04:29:05.568Z,1194.5
2022-08-05T04:31:33.990Z,1368.3
2022-08-05T04:33:55.103Z,1536.6
2022-08-05T04:36:49.983Z,1829
2022-08-05T04:39:37.063Z,2170
2022-08-05T04:42:11.589Z,2467
2022-08-05T04:44:31.569Z,2617
2022-08-05T04:46:36.732Z,2595
2022-08-05T04:49:38.312Z,2559
2022-08-05T04:52:13.548Z,2410
2022-08-05T04:54:39.985Z,2193
2022-08-05T04:56:51.567Z,2055
2022-08-05T04:59:53.619Z,1868
2022-08-05T05:02:43.251Z,1860
2022-08-05T05:05:17.064Z,1872
2022-08-05T05:07:32.537Z,1844
2022-08-05T05:09:35.245Z,1747
2022-08-05T05:12:29.157Z,1900
2022-08-05T05:15:10.714Z,2218
2022-08-05T05:17:56.116Z,2533
2022-08-05T05:19:44.123Z,2789
2022-08-05T05:22:43.933Z,3252
2022-08-05T05:25:32.904Z,3659
2022-08-05T05:27:59.811Z,4066
2022-08-05T05:30:28.993Z,4439
2022-08-05T05:33:23.226Z,5182
2022-08-05T05:36:14.808Z,5521
2022-08-05T05:38:52.074Z,5591
2022-08-05T05:41:16.363Z,5693
2022-08-05T05:43:28.273Z,5821
2022-08-05T05:46:20.836Z,6072
2022-08-05T05:49:06.394Z,6361
2022-08-05T05:51:42.837Z,6630
2022-08-05T05:53:54.266Z,6845
2022-08-05T05:56:52.304Z,6991
2022-08-05T05:59:42.511Z,7285
2022-08-05T06:02:25.295Z,7534
2022-08-05T06:04:38.388Z,7767
2022-08-05T06:06:46.809Z,7641
2022-08-05T06:09:52.813Z,7398
2022-08-05T06:12:22.506Z,7326
2022-08-05T06:14:49.438Z,7201
2022-08-05T06:17:02.362Z,7162
2022-08-05T06:20:04.641Z,7234
2022-08-05T06:22:52.717Z,7360
2022-08-05T06:26:00.089Z,7534
2022-08-05T06:28:08.855Z,7608
2022-08-05T06:29:54.469Z,7659
2022-08-05T06:32:43.839Z,8115
2022-08-05T06:36:03.304Z,8266
2022-08-05T06:37:55.723Z,8701
2022-08-05T06:39:58.902Z,8929
2022-08-05T06:42:59.688Z,9584
2022-08-05T06:46:03.491Z,9520
2022-08-05T06:48:47.516Z,10664
2022-08-05T06:50:33.254Z,11335
2022-08-05T06:52:37.551Z,11550
2022-08-05T06:55:27.364Z,9057
2022-08-05T06:58:11.862Z,11048
2022-08-05T07:00:29.611Z,11207
2022-08-05T07:02:36.264Z,9100
2022-08-05T07:05:37.558Z,11074
2022-08-05T07:08:19.009Z,11074
2022-08-05T07:10:30.567Z,10629
2022-08-05T07:13:37.253Z,11212
2022-08-05T07:16:13.452Z,11745
2022-08-05T07:18:47.833Z,12195
2022-08-05T07:21:04.620Z,12426
2022-08-05T07:24:11.156Z,12999
2022-08-05T07:26:57.997Z,13624
2022-08-05T07:30:22.997Z,14571
2022-08-05T07:31:57.115Z,12564
2022-08-05T07:34:04.479Z,15528
2022-08-05T07:37:02.340Z,16930
2022-08-05T07:40:03.872Z,16256
2022-08-05T07:42:15.369Z,11980
2022-08-05T07:44:27.544Z,11182
2022-08-05T07:47:42.099Z,7769
2022-08-05T07:50:25.008Z,7319
2022-08-05T07:52:56.326Z,7590
2022-08-05T07:55:44.111Z,7621
2022-08-05T07:57:41.441Z,7692
2022-08-05T08:00:18.917Z,7976
2022-08-05T08:03:13.484Z,8148
2022-08-05T08:05:27.341Z,7841
2022-08-05T08:07:59.322Z,7214
2022-08-05T08:10:42.071Z,6261
2022-08-05T08:13:29.995Z,5775
2022-08-05T08:16:34.129Z,5762
2022-08-05T08:18:21.872Z,6320
2022-08-05T08:20:44.884Z,7162
2022-08-05T08:24:00.652Z,8148
2022-08-05T08:26:02.196Z,8419
2022-08-05T08:28:35.973Z,9264
2022-08-05T08:30:39.304Z,11412
2022-08-05T08:33:37.800Z,11863
2022-08-05T08:36:37.215Z,12938
2022-08-05T08:38:53.607Z,14771
2022-08-05T08:41:10.242Z,16680
2022-08-05T08:43:21.113Z,14566
2022-08-05T08:46:05.082Z,17870
2022-08-05T08:49:03.165Z,18120
2022-08-05T08:51:22.638Z,18020
2022-08-05T08:53:14.439Z,17980
2022-08-05T08:56:12.922Z,18870
2022-08-05T08:58:56.751Z,19460
2022-08-05T09:01:25.816Z,20300
2022-08-05T09:03:40.679Z,15411
2022-08-05T09:06:44.246Z,19520
